createdAt,value
2018-07-11T00:01:21.459Z,9.37
2018-07-11T00:03:55.458Z,10.23
2018-07-11T00:06:27.400Z,9.90
2018-07-11T00:08:59.092Z,10.30
2018-07-11T00:11:30.883Z,9.87
2018-07-11T00:14:02.647Z,9.50
2018-07-11T00:16:33.843Z,9.07
2018-07-11T00:19:05.776Z,10.20
2018-07-11T00:21:37.624Z,10.30
2018-07-11T00:24:09.530Z,10.60
2018-07-11T00:26:41.469Z,9.57
2018-07-11T00:29:13.237Z,10.33
2018-07-11T00:31:44.963Z,10.77
2018-07-11T00:34:16.812Z,12.03
2018-07-11T00:36:48.582Z,12.53
2018-07-11T00:39:20.566Z,12.23
2018-07-11T00:41:52.461Z,11.20
2018-07-11T00:44:24.338Z,12.23
2018-07-11T00:46:56.420Z,12.87
2018-07-11T00:49:28.218Z,11.40
2018-07-11T00:52:00.038Z,11.70
2018-07-11T00:54:31.947Z,11.60
2018-07-11T00:57:04.403Z,12.03
2018-07-11T00:59:38.486Z,11.73
2018-07-11T01:02:10.307Z,13.23
2018-07-11T01:04:42.163Z,11.70
2018-07-11T01:07:14.303Z,13.13
2018-07-11T01:09:49.727Z,12.67
2018-07-11T01:12:21.653Z,12.00
2018-07-11T01:14:53.503Z,12.43
2018-07-11T01:17:30.988Z,14.07
2018-07-11T01:20:02.831Z,13.07
2018-07-11T01:22:34.575Z,13.53
2018-07-11T01:25:06.258Z,12.90
2018-07-11T01:27:37.961Z,13.20
2018-07-11T01:30:09.698Z,13.73
2018-07-11T01:32:41.450Z,13.40
2018-07-11T01:35:13.238Z,14.10
2018-07-11T01:37:45.072Z,14.77
2018-07-11T01:40:16.897Z,14.53
2018-07-11T01:42:48.699Z,13.87
2018-07-11T01:45:20.473Z,13.70
2018-07-11T01:47:52.335Z,13.57
2018-07-11T01:50:24.191Z,14.93
2018-07-11T01:52:59.647Z,15.50
2018-07-11T01:55:31.267Z,15.43
2018-07-11T01:58:03.075Z,14.80
2018-07-11T02:00:35.431Z,14.70
2018-07-11T02:03:07.093Z,16.80
2018-07-11T02:05:38.690Z,16.10
2018-07-11T02:08:10.827Z,16.47
2018-07-11T02:10:42.770Z,17.03
2018-07-11T02:13:15.107Z,17.40
2018-07-11T02:15:49.677Z,17.00
2018-07-11T02:18:27.127Z,17.20
2018-07-11T02:20:59.700Z,17.30
2018-07-11T02:23:39.054Z,17.83
2018-07-11T02:26:10.947Z,17.90
2018-07-11T02:28:43.237Z,18.47
2018-07-11T02:31:15.023Z,16.87
2018-07-11T02:33:46.875Z,16.20
2018-07-11T02:36:18.630Z,17.10
2018-07-11T02:38:50.301Z,17.37
2018-07-11T02:41:22.520Z,17.07
2018-07-11T02:43:54.259Z,16.73
2018-07-11T02:46:31.289Z,17.80
2018-07-11T02:49:03.015Z,17.70
2018-07-11T02:51:34.843Z,17.40
2018-07-11T02:54:06.611Z,15.33
2018-07-11T02:56:38.499Z,14.63
2018-07-11T02:59:10.565Z,15.27
2018-07-11T03:01:42.242Z,13.80
2018-07-11T03:04:14.264Z,13.67
2018-07-11T03:06:46.056Z,13.03
2018-07-11T03:09:18.031Z,13.73
2018-07-11T03:11:49.750Z,14.10
2018-07-11T03:14:21.462Z,13.97
2018-07-11T03:16:53.284Z,14.57
2018-07-11T03:19:24.969Z,14.60
2018-07-11T03:21:56.754Z,14.33
2018-07-11T03:24:28.736Z,14.10
2018-07-11T03:27:00.231Z,12.40
2018-07-11T03:29:31.682Z,13.03
2018-07-11T03:32:03.439Z,12.77
2018-07-11T03:34:35.442Z,13.07
2018-07-11T03:37:07.350Z,13.77
2018-07-11T03:39:41.223Z,14.00
2018-07-11T03:42:12.930Z,15.17
2018-07-11T03:44:44.958Z,15.13
2018-07-11T03:47:16.623Z,15.20
2018-07-11T03:49:48.335Z,15.33
2018-07-11T03:52:20.111Z,13.50
2018-07-11T03:54:51.750Z,12.37
2018-07-11T03:57:23.363Z,11.50
2018-07-11T03:59:55.004Z,11.87
2018-07-11T04:02:26.931Z,11.67
2018-07-11T04:04:58.691Z,10.83
2018-07-11T04:07:30.320Z,11.40
2018-07-11T04:10:01.484Z,10.80
2018-07-11T04:12:32.926Z,10.20
2018-07-11T04:15:04.559Z,11.10
2018-07-11T04:17:36.305Z,10.50
2018-07-11T04:20:08.055Z,10.03
2018-07-11T04:22:39.806Z,11.13
2018-07-11T04:25:11.553Z,10.67
2018-07-11T04:27:43.321Z,10.83
2018-07-11T04:30:15.591Z,9.63
2018-07-11T04:32:47.415Z,10.23
2018-07-11T04:35:19.186Z,9.53
2018-07-11T04:37:51.014Z,10.10
2018-07-11T04:40:22.779Z,9.90
2018-07-11T04:42:54.573Z,9.17
2018-07-11T04:45:26.324Z,10.67
2018-07-11T04:47:58.171Z,10.77
2018-07-11T04:50:29.933Z,11.90
2018-07-11T04:53:06.450Z,10.57
2018-07-11T04:55:38.633Z,10.50
2018-07-11T04:58:10.421Z,11.50
2018-07-11T05:00:42.488Z,10.90
2018-07-11T05:03:14.141Z,11.33
2018-07-11T05:05:46.035Z,11.87
2018-07-11T05:08:18.446Z,12.37
2018-07-11T05:10:50.296Z,11.63
2018-07-11T05:13:22.480Z,12.07
2018-07-11T05:15:54.446Z,12.80
2018-07-11T05:18:26.119Z,11.97
2018-07-11T05:20:57.804Z,10.67
2018-07-11T05:23:29.511Z,12.20
2018-07-11T05:26:01.186Z,10.80
2018-07-11T05:28:33.362Z,11.60
2018-07-11T05:31:04.999Z,12.07
2018-07-11T05:33:36.692Z,10.47
2018-07-11T05:36:08.399Z,10.53
2018-07-11T05:38:40.096Z,9.70
2018-07-11T05:41:11.748Z,10.47
2018-07-11T05:43:43.482Z,8.80
2018-07-11T05:46:15.101Z,9.80
2018-07-11T05:48:46.355Z,9.53
2018-07-11T05:51:17.807Z,7.97
2018-07-11T05:53:49.492Z,7.67
2018-07-11T05:56:21.221Z,7.57
2018-07-11T05:58:53.259Z,8.07
2018-07-11T06:01:24.844Z,7.47
2018-07-11T06:03:56.506Z,6.63
2018-07-11T06:06:28.222Z,6.90
2018-07-11T06:08:59.883Z,7.57
2018-07-11T06:11:31.750Z,9.87
2018-07-11T06:14:03.574Z,10.47
2018-07-11T06:16:35.130Z,11.70
2018-07-11T06:19:06.859Z,11.50
2018-07-11T06:21:38.642Z,10.13
2018-07-11T06:24:10.371Z,12.60
2018-07-11T06:26:42.420Z,11.57
2018-07-11T06:29:14.098Z,12.53
2018-07-11T06:31:45.784Z,10.70
2018-07-11T06:34:17.747Z,9.73
2018-07-11T06:36:49.469Z,8.10
2018-07-11T06:39:21.375Z,8.33
2018-07-11T06:41:53.095Z,8.00
2018-07-11T06:44:24.936Z,8.40
2018-07-11T06:46:56.979Z,10.47
2018-07-11T06:49:28.904Z,10.90
2018-07-11T06:52:00.824Z,10.47
2018-07-11T06:54:32.705Z,9.87
2018-07-11T06:57:04.455Z,10.00
2018-07-11T06:59:36.424Z,13.10
2018-07-11T07:02:08.398Z,12.97
2018-07-11T07:04:40.317Z,11.83
2018-07-11T07:07:15.969Z,12.00
2018-07-11T07:09:47.872Z,11.87
2018-07-11T07:12:19.841Z,13.47
2018-07-11T07:14:51.693Z,14.90
2018-07-11T07:17:23.465Z,13.67
2018-07-11T07:19:55.389Z,14.63
2018-07-11T07:22:27.200Z,13.93
2018-07-11T07:24:59.198Z,12.40
2018-07-11T07:27:31.386Z,12.73
2018-07-11T07:30:03.681Z,11.70
2018-07-11T07:32:35.638Z,10.97
2018-07-11T07:35:07.150Z,11.20
2018-07-11T07:37:39.031Z,13.17
2018-07-11T07:40:10.873Z,12.20
2018-07-11T07:42:42.627Z,10.37
2018-07-11T07:45:14.501Z,10.97
2018-07-11T07:47:47.257Z,13.33
2018-07-11T07:50:19.270Z,12.50
2018-07-11T07:52:51.412Z,11.83
2018-07-11T07:55:23.332Z,11.37
2018-07-11T07:57:55.392Z,10.57
2018-07-11T08:00:28.448Z,10.77
2018-07-11T08:03:00.911Z,11.53
2018-07-11T08:05:32.889Z,12.10
2018-07-11T08:08:04.678Z,11.53
2018-07-11T08:10:36.568Z,10.53
2018-07-11T08:13:08.392Z,10.00
2018-07-11T08:15:40.276Z,9.27
2018-07-11T08:18:12.151Z,9.23
2018-07-11T08:20:44.267Z,9.33
2018-07-11T08:23:39.930Z,10.57
2018-07-11T08:26:28.174Z,11.03
2018-07-11T08:31:46.017Z,10.83
2018-07-11T08:34:40.364Z,8.80
2018-07-11T08:38:01.512Z,8.03
2018-07-11T08:41:00.403Z,7.10
2018-07-11T08:44:55.121Z,7.33
2018-07-11T08:47:43.269Z,7.57
2018-07-11T08:50:33.672Z,8.10
2018-07-11T08:53:23.254Z,7.73
2018-07-11T08:56:18.435Z,7.90
2018-07-11T08:59:09.947Z,7.10
2018-07-11T09:01:59.921Z,7.47
2018-07-11T09:06:59.107Z,7.10
2018-07-11T09:10:53.252Z,7.23
2018-07-11T09:16:12.781Z,8.47
2018-07-11T09:21:08.412Z,7.40
2018-07-11T09:24:50.815Z,8.10
2018-07-11T09:27:22.584Z,7.70
2018-07-11T09:29:54.617Z,8.20
2018-07-11T09:32:26.383Z,7.50
2018-07-11T09:34:58.259Z,7.00
2018-07-11T09:37:30.137Z,7.87
2018-07-11T09:40:02.132Z,6.87
2018-07-11T09:42:39.469Z,7.70
2018-07-11T09:45:11.410Z,7.50
2018-07-11T09:47:43.216Z,7.13
2018-07-11T09:50:15.737Z,7.00
2018-07-11T09:52:47.616Z,7.80
2018-07-11T09:55:19.900Z,7.17
2018-07-11T09:57:53.763Z,5.50
2018-07-11T10:01:36.345Z,5.80
2018-07-11T10:04:08.323Z,6.10
2018-07-11T10:06:40.650Z,6.73
2018-07-11T10:09:12.541Z,6.10
2018-07-11T10:11:46.093Z,7.10
2018-07-11T10:14:18.021Z,6.03
2018-07-11T10:16:49.762Z,6.43
2018-07-11T10:19:21.409Z,5.93
2018-07-11T10:21:53.644Z,5.90
2018-07-11T10:24:25.475Z,4.37
2018-07-11T10:26:57.336Z,5.37
2018-07-11T10:29:29.625Z,5.43
2018-07-11T10:32:01.429Z,5.43
2018-07-11T10:34:33.842Z,5.80
2018-07-11T10:37:06.234Z,5.00
2018-07-11T10:39:38.190Z,4.80
2018-07-11T10:42:09.677Z,4.37
2018-07-11T10:44:42.307Z,5.53
2018-07-11T10:47:14.762Z,5.27
2018-07-11T10:49:46.603Z,5.10
2018-07-11T10:52:18.683Z,6.03
2018-07-11T10:54:50.610Z,5.17
2018-07-11T10:57:26.923Z,4.57
2018-07-11T10:59:58.989Z,4.60
2018-07-11T11:02:30.683Z,4.07
2018-07-11T11:05:02.440Z,4.20
2018-07-11T11:07:38.514Z,4.53
2018-07-11T11:10:11.029Z,4.83
2018-07-11T11:12:44.221Z,4.03
2018-07-11T11:15:19.726Z,4.70
2018-07-11T11:17:51.933Z,4.90
2018-07-11T11:20:24.136Z,4.70
2018-07-11T11:22:56.489Z,5.03
2018-07-11T11:25:31.106Z,6.17
2018-07-11T11:28:03.319Z,5.20
2018-07-11T11:30:35.277Z,5.43
2018-07-11T11:33:07.177Z,5.50
2018-07-11T11:35:39.028Z,5.17
2018-07-11T11:38:11.136Z,5.93
2018-07-11T11:40:42.976Z,5.63
2018-07-11T11:43:14.774Z,5.50
2018-07-11T11:45:46.496Z,5.60
2018-07-11T11:48:18.269Z,5.60
2018-07-11T11:50:49.984Z,5.43
2018-07-11T11:53:22.283Z,4.93
2018-07-11T11:56:01.383Z,4.80
2018-07-11T11:58:34.124Z,5.00
2018-07-11T12:01:05.983Z,5.43
2018-07-11T12:03:37.858Z,5.40
2018-07-11T12:06:09.597Z,5.30
2018-07-11T12:08:42.347Z,4.70
2018-07-11T12:11:14.163Z,6.07
2018-07-11T12:13:45.985Z,5.33
2018-07-11T12:16:17.767Z,5.90
2018-07-11T12:18:49.700Z,5.27
2018-07-11T12:21:21.589Z,4.77
2018-07-11T12:23:54.052Z,4.70
2018-07-11T12:26:27.758Z,4.57
2018-07-11T12:28:59.994Z,4.47
2018-07-11T12:31:31.899Z,4.73
2018-07-11T12:34:03.647Z,3.83
2018-07-11T12:36:36.569Z,4.40
2018-07-11T12:39:08.648Z,4.00
2018-07-11T12:41:40.474Z,4.63
2018-07-11T12:44:12.296Z,4.87
2018-07-11T12:46:44.646Z,5.23
2018-07-11T12:49:16.625Z,4.97
2018-07-11T12:51:50.396Z,5.27
2018-07-11T12:54:25.337Z,5.10
2018-07-11T12:56:57.624Z,4.93
2018-07-11T12:59:29.564Z,4.93
2018-07-11T13:02:02.651Z,5.20
2018-07-11T13:04:37.854Z,5.27
2018-07-11T13:07:10.129Z,5.30
2018-07-11T13:09:42.336Z,5.30
2018-07-11T13:12:14.016Z,5.17
2018-07-11T13:14:47.524Z,5.33
2018-07-11T13:17:23.408Z,4.70
2018-07-11T13:19:59.391Z,5.40
2018-07-11T13:22:34.737Z,5.13
2018-07-11T13:25:08.414Z,5.57
2018-07-11T13:27:40.605Z,5.20
2018-07-11T13:30:12.399Z,5.50
2018-07-11T13:32:44.362Z,5.47
2018-07-11T13:35:16.229Z,5.77
2018-07-11T13:37:49.348Z,5.63
2018-07-11T13:40:23.316Z,4.90
2018-07-11T13:42:55.013Z,5.00
2018-07-11T13:45:26.824Z,5.43
2018-07-11T13:48:03.685Z,5.30
2018-07-11T13:50:37.737Z,5.13
2018-07-11T13:53:09.558Z,4.87
2018-07-11T13:55:41.428Z,5.10
2018-07-11T13:58:13.404Z,4.83
2018-07-11T14:00:45.284Z,4.80
2018-07-11T14:03:17.187Z,5.37
2018-07-11T14:05:50.323Z,5.40
2018-07-11T14:08:22.171Z,5.37
2018-07-11T14:10:54.256Z,5.80
2018-07-11T14:13:26.475Z,5.10
2018-07-11T14:15:58.393Z,5.43
2018-07-11T14:18:30.259Z,5.43
2018-07-11T14:21:02.474Z,6.10
2018-07-11T14:23:42.659Z,6.17
2018-07-11T14:26:17.522Z,5.40
2018-07-11T14:28:53.782Z,5.30
2018-07-11T14:31:33.739Z,7.17
2018-07-11T14:34:07.974Z,5.57
2018-07-11T14:36:39.972Z,4.90
2018-07-11T14:39:12.285Z,6.20
2018-07-11T14:41:44.164Z,5.63
2018-07-11T14:44:16.425Z,6.00
2018-07-11T14:46:48.628Z,6.43
2018-07-11T14:49:22.286Z,11.97
2018-07-11T14:51:54.300Z,6.10
2018-07-11T14:54:26.129Z,6.47
2018-07-11T14:56:58.053Z,6.50
2018-07-11T14:59:29.828Z,7.50
2018-07-11T15:02:01.676Z,5.70
2018-07-11T15:04:33.664Z,7.20
2018-07-11T15:07:05.930Z,6.60
2018-07-11T15:09:38.649Z,6.10
2018-07-11T15:12:12.136Z,7.60
2018-07-11T15:14:45.052Z,5.60
2018-07-11T15:17:17.893Z,5.10
2018-07-11T15:19:52.180Z,4.60
2018-07-11T15:22:28.195Z,5.20
2018-07-11T15:25:01.080Z,4.40
2018-07-11T15:27:33.243Z,4.90
2018-07-11T15:30:07.844Z,5.10
2018-07-11T15:32:40.212Z,4.43
2018-07-11T15:35:12.951Z,5.00
2018-07-11T15:37:44.883Z,4.70
2018-07-11T15:40:16.873Z,4.37
2018-07-11T15:42:49.904Z,5.10
2018-07-11T15:45:21.828Z,4.73
2018-07-11T15:47:54.185Z,4.60
2018-07-11T15:50:26.946Z,4.43
2018-07-11T15:53:00.365Z,4.73
2018-07-11T15:55:35.113Z,4.47
2018-07-11T15:58:14.253Z,4.37
2018-07-11T16:00:46.174Z,4.20
2018-07-11T16:03:19.205Z,4.00
2018-07-11T16:05:51.209Z,3.87
2018-07-11T16:08:23.359Z,3.90
2018-07-11T16:11:02.862Z,4.07
2018-07-11T16:13:35.116Z,3.60
2018-07-11T16:16:07.040Z,3.97
2018-07-11T16:18:39.094Z,3.90
2018-07-11T16:21:10.963Z,4.20
2018-07-11T16:23:42.920Z,4.10
2018-07-11T16:26:14.956Z,3.67
2018-07-11T16:28:47.076Z,3.90
2018-07-11T16:31:18.973Z,3.87
2018-07-11T16:33:50.971Z,3.53
2018-07-11T16:36:22.980Z,4.20
2018-07-11T16:38:54.853Z,4.30
2018-07-11T16:41:26.980Z,3.67
2018-07-11T16:43:59.464Z,4.57
2018-07-11T16:46:31.402Z,4.10
2018-07-11T16:49:03.718Z,4.33
2018-07-11T16:51:35.577Z,5.37
2018-07-11T16:54:07.550Z,4.37
2018-07-11T16:56:40.476Z,4.27
2018-07-11T16:59:14.425Z,4.37
2018-07-11T17:01:59.552Z,4.90
2018-07-11T17:04:34.470Z,4.40
2018-07-11T17:07:11.289Z,4.23
2018-07-11T17:09:43.927Z,4.30
2018-07-11T17:12:16.265Z,4.80
2018-07-11T17:14:49.156Z,4.80
2018-07-11T17:17:25.102Z,4.60
2018-07-11T17:20:04.813Z,4.40
2018-07-11T17:22:58.513Z,4.67
2018-07-11T17:25:37.733Z,4.60
2018-07-11T17:28:09.694Z,4.33
2018-07-11T17:30:43.188Z,4.50
2018-07-11T17:33:15.710Z,4.63
2018-07-11T17:35:54.225Z,4.70
2018-07-11T17:38:30.664Z,4.67
2018-07-11T17:41:03.663Z,4.60
2018-07-11T17:43:38.197Z,4.33
2018-07-11T17:46:10.179Z,4.77
2018-07-11T17:49:23.502Z,4.90
2018-07-11T17:52:05.083Z,4.87
2018-07-11T17:55:18.193Z,4.67
2018-07-11T17:57:56.081Z,5.20
2018-07-11T18:01:06.047Z,5.30
2018-07-11T18:03:49.542Z,4.80
2018-07-11T18:06:42.089Z,4.97
2018-07-11T18:09:15.183Z,5.33
2018-07-11T18:12:00.026Z,5.17
2018-07-11T18:14:58.826Z,5.20
2018-07-11T18:17:57.325Z,5.00
2018-07-11T18:21:18.470Z,5.20
2018-07-11T18:26:16.934Z,4.73
2018-07-11T18:29:12.315Z,4.80
2018-07-11T18:32:03.621Z,5.33
2018-07-11T18:37:02.257Z,5.47
2018-07-11T18:40:56.538Z,5.37
2018-07-11T18:43:42.684Z,5.87
2018-07-11T18:47:30.401Z,5.50
2018-07-11T18:50:21.456Z,5.87
2018-07-11T18:53:08.823Z,5.53
2018-07-11T18:55:58.366Z,5.70
2018-07-11T19:01:23.665Z,5.10
2018-07-11T19:04:14.724Z,5.33
2018-07-11T19:07:00.290Z,5.33
2018-07-11T19:10:08.002Z,5.23
2018-07-11T19:13:14.603Z,5.47
2018-07-11T19:15:47.753Z,5.63
2018-07-11T19:18:24.553Z,5.03
2018-07-11T19:21:21.065Z,5.33
2018-07-11T19:24:17.890Z,5.17
2018-07-11T19:27:02.881Z,5.10
2018-07-11T19:31:55.512Z,5.17
2018-07-11T19:36:50.453Z,5.27
2018-07-11T19:39:36.936Z,4.97
2018-07-11T19:42:23.976Z,4.97
2018-07-11T19:48:26.495Z,5.20
2018-07-11T19:51:15.124Z,5.27
2018-07-11T19:54:08.368Z,5.10
2018-07-11T19:56:59.437Z,4.47
2018-07-11T19:59:31.372Z,4.90
2018-07-11T20:02:03.385Z,4.47
2018-07-11T20:04:35.272Z,5.03
2018-07-11T20:07:07.262Z,4.30
2018-07-11T20:09:39.594Z,4.93
2018-07-11T20:12:11.489Z,4.43
2018-07-11T20:14:43.446Z,4.20
2018-07-11T20:17:15.314Z,4.03
2018-07-11T20:19:47.232Z,4.50
2018-07-11T20:22:19.219Z,4.70
2018-07-11T20:24:51.072Z,4.53
2018-07-11T20:27:22.909Z,4.83
2018-07-11T20:29:54.861Z,4.63
2018-07-11T20:32:27.260Z,4.80
2018-07-11T20:34:59.452Z,5.50
2018-07-11T20:37:31.986Z,5.03
2018-07-11T20:40:03.865Z,4.90
2018-07-11T20:42:36.951Z,4.80
2018-07-11T20:45:08.331Z,4.53
2018-07-11T20:47:40.452Z,4.37
2018-07-11T20:50:12.830Z,5.50
2018-07-11T20:52:44.642Z,5.00
2018-07-11T20:55:16.484Z,5.13
2018-07-11T20:57:48.313Z,5.47
2018-07-11T21:00:37.202Z,5.53
2018-07-11T21:03:30.390Z,5.40
2018-07-11T21:10:31.062Z,5.30
2018-07-11T21:13:37.435Z,5.50
2018-07-11T21:18:29.489Z,4.57
2018-07-11T21:21:01.405Z,5.20
2018-07-11T21:23:33.331Z,5.30
2018-07-11T21:26:05.210Z,4.70
2018-07-11T21:28:37.832Z,4.83
2018-07-11T21:31:09.733Z,5.40
2018-07-11T21:33:41.531Z,4.70
2018-07-11T21:36:13.505Z,5.17
2018-07-11T21:38:45.505Z,5.10
2018-07-11T21:41:17.392Z,5.00
2018-07-11T21:43:49.310Z,5.80
2018-07-11T21:46:21.478Z,5.30
2018-07-11T21:48:54.023Z,5.80
2018-07-11T21:51:25.891Z,5.37
2018-07-11T21:53:57.801Z,5.40
2018-07-11T21:56:29.663Z,5.60
2018-07-11T21:59:01.850Z,5.30
2018-07-11T22:01:33.734Z,5.70
2018-07-11T22:04:05.777Z,5.03
2018-07-11T22:06:37.941Z,5.43
2018-07-11T22:09:09.950Z,5.30
2018-07-11T22:11:41.697Z,5.23
2018-07-11T22:14:13.530Z,5.30
2018-07-11T22:16:45.190Z,5.17
2018-07-11T22:19:17.090Z,5.67
2018-07-11T22:21:46.699Z,5.30
2018-07-11T22:24:16.041Z,5.03
2018-07-11T22:26:45.436Z,5.23
2018-07-11T22:29:14.892Z,5.10
2018-07-11T22:31:44.270Z,4.50
2018-07-11T22:34:13.644Z,5.40
2018-07-11T22:36:43.388Z,5.40
2018-07-11T22:39:12.763Z,5.30
2018-07-11T22:41:42.293Z,4.73
2018-07-11T22:44:11.668Z,5.70
2018-07-11T22:46:41.010Z,5.30
2018-07-11T22:49:10.820Z,5.10
2018-07-11T22:51:41.089Z,5.93
2018-07-11T22:54:10.206Z,5.43
2018-07-11T22:56:39.915Z,5.40
2018-07-11T22:59:09.277Z,6.20
2018-07-11T23:01:38.660Z,5.30
2018-07-11T23:04:08.094Z,5.93
2018-07-11T23:06:37.625Z,5.97
2018-07-11T23:09:07.182Z,5.90
2018-07-11T23:11:36.522Z,6.47
2018-07-11T23:14:05.845Z,5.63
2018-07-11T23:16:35.146Z,6.03
2018-07-11T23:19:04.487Z,5.77
2018-07-11T23:21:33.734Z,5.70
2018-07-11T23:24:03.909Z,5.60
2018-07-11T23:26:33.266Z,5.87
2018-07-11T23:29:02.588Z,6.57
2018-07-11T23:31:31.897Z,6.03
2018-07-11T23:34:01.232Z,6.00
2018-07-11T23:36:30.866Z,6.27
2018-07-11T23:39:00.713Z,5.97
2018-07-11T23:41:30.359Z,6.37
2018-07-11T23:43:59.770Z,6.40
2018-07-11T23:46:29.306Z,6.20
2018-07-11T23:48:58.777Z,5.90
2018-07-11T23:51:28.637Z,6.20
2018-07-11T23:53:57.757Z,5.83
2018-07-11T23:56:27.116Z,5.37
2018-07-11T23:58:56.914Z,5.60
